createdAt,value
2018-09-15T00:00:40.757Z,3.93
2018-09-15T00:03:10.201Z,3.60
2018-09-15T00:05:39.595Z,4.13
2018-09-15T00:08:08.983Z,4.33
2018-09-15T00:10:38.400Z,4.20
2018-09-15T00:13:07.906Z,4.20
2018-09-15T00:15:37.308Z,3.80
2018-09-15T00:18:09.782Z,3.97
2018-09-15T00:20:39.287Z,4.50
2018-09-15T00:23:09.555Z,4.73
2018-09-15T00:25:39.216Z,4.80
2018-09-15T00:28:09.128Z,4.50
2018-09-15T00:30:38.531Z,4.63
2018-09-15T00:33:07.834Z,4.13
2018-09-15T00:35:37.234Z,4.43
2018-09-15T00:38:06.637Z,4.40
2018-09-15T00:40:36.037Z,4.50
2018-09-15T00:43:05.644Z,4.60
2018-09-15T00:45:35.046Z,4.90
2018-09-15T00:48:04.554Z,4.40
2018-09-15T00:50:33.849Z,4.97
2018-09-15T00:53:03.250Z,4.30
2018-09-15T00:55:32.551Z,4.60
2018-09-15T00:58:01.852Z,4.80
2018-09-15T01:00:31.151Z,4.50
2018-09-15T01:03:00.755Z,4.33
2018-09-15T01:05:30.158Z,4.93
2018-09-15T01:07:59.665Z,4.97
2018-09-15T01:10:29.070Z,4.50
2018-09-15T01:12:58.468Z,4.90
2018-09-15T01:15:27.869Z,4.30
2018-09-15T01:17:57.270Z,4.80
2018-09-15T01:20:26.570Z,4.40
2018-09-15T01:22:55.971Z,4.40
2018-09-15T01:25:25.374Z,4.80
2018-09-15T01:27:54.776Z,4.90
2018-09-15T01:30:24.275Z,4.67
2018-09-15T01:32:53.576Z,5.10
2018-09-15T01:35:22.875Z,4.87
2018-09-15T01:37:52.384Z,4.67
2018-09-15T01:40:21.783Z,4.90
2018-09-15T01:42:51.387Z,5.10
2018-09-15T01:45:20.696Z,4.80
2018-09-15T01:47:50.194Z,4.63
2018-09-15T01:50:19.600Z,4.50
2018-09-15T01:52:48.999Z,4.70
2018-09-15T01:55:18.400Z,4.80
2018-09-15T01:57:47.813Z,5.03
2018-09-15T02:00:17.309Z,4.80
2018-09-15T02:02:46.711Z,4.83
2018-09-15T02:05:16.114Z,5.00
2018-09-15T02:07:45.660Z,5.07
2018-09-15T02:10:15.026Z,5.03
2018-09-15T02:12:44.521Z,4.67
2018-09-15T02:15:13.925Z,4.50
2018-09-15T02:17:43.427Z,4.60
2018-09-15T02:20:12.829Z,5.13
2018-09-15T02:22:42.318Z,4.50
2018-09-15T02:25:11.527Z,5.10
2018-09-15T02:27:40.831Z,4.90
2018-09-15T02:30:10.392Z,5.20
2018-09-15T02:32:39.841Z,5.00
2018-09-15T02:35:09.448Z,5.17
2018-09-15T02:37:38.850Z,5.20
2018-09-15T02:40:08.252Z,5.27
2018-09-15T02:42:37.756Z,4.90
2018-09-15T02:45:07.260Z,4.77
2018-09-15T02:47:36.771Z,5.10
2018-09-15T02:50:06.892Z,4.90
2018-09-15T02:52:36.430Z,5.10
2018-09-15T02:55:06.194Z,4.87
2018-09-15T02:57:35.918Z,4.80
2018-09-15T03:00:05.357Z,4.80
2018-09-15T03:02:34.709Z,5.50
2018-09-15T03:05:04.216Z,5.10
2018-09-15T03:07:33.618Z,5.20
2018-09-15T03:10:03.123Z,5.37
2018-09-15T03:12:32.713Z,5.50
2018-09-15T03:15:02.134Z,5.20
2018-09-15T03:17:31.535Z,5.17
2018-09-15T03:20:01.035Z,5.70
2018-09-15T03:22:30.439Z,5.53
2018-09-15T03:24:59.738Z,6.10
2018-09-15T03:27:29.141Z,5.73
2018-09-15T03:29:58.544Z,5.37
2018-09-15T03:32:28.148Z,5.70
2018-09-15T03:34:57.553Z,5.97
2018-09-15T03:37:26.970Z,5.70
2018-09-15T03:39:56.457Z,6.33
2018-09-15T03:42:25.859Z,6.77
2018-09-15T03:44:55.261Z,7.27
2018-09-15T03:47:24.663Z,6.77
2018-09-15T03:49:54.171Z,6.80
2018-09-15T03:52:23.605Z,7.40
2018-09-15T03:54:53.073Z,7.40
2018-09-15T03:57:22.805Z,7.40
2018-09-15T03:59:52.318Z,7.50
2018-09-15T04:02:21.689Z,6.80
2018-09-15T04:04:51.092Z,7.23
2018-09-15T04:07:20.493Z,7.70
2018-09-15T04:09:49.995Z,7.67
2018-09-15T04:12:19.402Z,7.60
2018-09-15T04:14:48.796Z,7.27
2018-09-15T04:17:18.201Z,7.43
2018-09-15T04:19:47.602Z,7.20
2018-09-15T04:22:16.906Z,7.33
2018-09-15T04:24:46.305Z,7.60
2018-09-15T04:27:15.703Z,7.93
2018-09-15T04:29:45.110Z,8.30
2018-09-15T04:32:14.447Z,7.87
2018-09-15T04:34:43.709Z,7.50
2018-09-15T04:37:13.213Z,7.20
2018-09-15T04:39:42.653Z,6.40
2018-09-15T04:42:12.119Z,6.97
2018-09-15T04:44:41.623Z,7.07
2018-09-15T04:47:11.029Z,6.70
2018-09-15T04:49:40.511Z,7.03
2018-09-15T04:52:09.931Z,7.57
2018-09-15T04:54:39.287Z,7.00
2018-09-15T04:57:08.735Z,7.60
2018-09-15T04:59:38.137Z,7.80
2018-09-15T05:02:07.644Z,6.93
2018-09-15T05:04:37.044Z,7.53
2018-09-15T05:07:06.649Z,7.10
2018-09-15T05:09:36.154Z,7.10
2018-09-15T05:12:05.659Z,7.43
2018-09-15T05:14:34.988Z,8.40
2018-09-15T05:17:04.360Z,8.70
2018-09-15T05:19:33.964Z,7.60
2018-09-15T05:22:03.369Z,8.47
2018-09-15T05:24:32.690Z,7.80
2018-09-15T05:27:02.172Z,7.93
2018-09-15T05:29:31.574Z,8.27
2018-09-15T05:32:00.977Z,8.77
2018-09-15T05:34:30.581Z,7.33
2018-09-15T05:36:59.985Z,7.67
2018-09-15T05:39:29.390Z,8.17
2018-09-15T05:41:58.787Z,9.03
2018-09-15T05:44:28.192Z,10.23
2018-09-15T05:46:57.590Z,8.87
2018-09-15T05:49:26.992Z,8.40
2018-09-15T05:51:56.600Z,7.50
2018-09-15T05:54:26.002Z,7.70
2018-09-15T05:56:55.405Z,7.20
2018-09-15T05:59:24.809Z,7.30
2018-09-15T06:01:54.209Z,8.33
2018-09-15T06:04:23.610Z,8.53
2018-09-15T06:06:52.914Z,8.20
2018-09-15T06:09:22.211Z,9.23
2018-09-15T06:11:51.611Z,8.70
2018-09-15T06:14:21.117Z,8.67
2018-09-15T06:16:50.484Z,8.10
2018-09-15T06:19:19.815Z,8.47
2018-09-15T06:21:49.217Z,8.07
2018-09-15T06:24:18.620Z,8.00
2018-09-15T06:26:47.915Z,7.77
2018-09-15T06:29:17.319Z,7.67
2018-09-15T06:31:46.621Z,7.93
2018-09-15T06:34:16.022Z,7.70
2018-09-15T06:36:45.428Z,7.57
2018-09-15T06:39:14.862Z,7.80
2018-09-15T06:41:44.333Z,7.30
2018-09-15T06:44:13.735Z,7.87
2018-09-15T06:46:43.133Z,7.13
2018-09-15T06:49:12.536Z,7.97
2018-09-15T06:51:41.944Z,8.10
2018-09-15T06:54:11.347Z,7.27
2018-09-15T06:56:40.749Z,7.00
2018-09-15T06:59:10.150Z,7.07
2018-09-15T07:01:40.774Z,7.10
2018-09-15T07:04:12.122Z,7.03
2018-09-15T07:06:41.991Z,6.83
2018-09-15T07:09:12.826Z,7.13
2018-09-15T07:11:42.376Z,6.73
2018-09-15T07:14:12.088Z,6.23
2018-09-15T07:16:41.589Z,6.67
2018-09-15T07:19:11.093Z,7.23
2018-09-15T07:21:40.495Z,6.90
2018-09-15T07:24:09.896Z,6.63
2018-09-15T07:26:39.300Z,6.60
2018-09-15T07:29:08.805Z,6.30
2018-09-15T07:31:38.209Z,6.00
2018-09-15T07:34:07.754Z,6.00
2018-09-15T07:36:37.112Z,6.33
2018-09-15T07:39:08.970Z,6.57
2018-09-15T07:41:38.438Z,6.27
2018-09-15T07:44:07.985Z,6.63
2018-09-15T07:46:37.484Z,5.60
2018-09-15T07:49:06.988Z,6.00
2018-09-15T07:51:36.433Z,5.43
2018-09-15T07:54:05.798Z,5.30
2018-09-15T07:56:35.098Z,6.30
2018-09-15T07:59:04.492Z,5.97
2018-09-15T08:01:33.895Z,5.40
2018-09-15T08:04:03.397Z,5.30
2018-09-15T08:06:32.805Z,5.37
2018-09-15T08:09:02.201Z,5.57
2018-09-15T08:11:31.607Z,5.30
2018-09-15T08:14:01.009Z,4.83
2018-09-15T08:16:30.234Z,4.97
2018-09-15T08:18:59.606Z,4.93
2018-09-15T08:21:28.904Z,4.57
2018-09-15T08:23:58.309Z,4.63
2018-09-15T08:26:27.715Z,4.67
2018-09-15T08:28:57.213Z,4.80
2018-09-15T08:31:26.511Z,4.53
2018-09-15T08:33:56.239Z,4.43
2018-09-15T08:36:25.914Z,4.07
2018-09-15T08:38:55.333Z,4.30
2018-09-15T08:41:24.663Z,3.80
2018-09-15T08:43:54.138Z,3.50
2018-09-15T08:46:23.538Z,3.70
2018-09-15T08:48:52.899Z,3.90
2018-09-15T08:51:22.238Z,3.57
2018-09-15T08:53:51.643Z,3.57
2018-09-15T08:56:21.147Z,3.80
2018-09-15T08:58:50.484Z,3.00
2018-09-15T09:01:19.949Z,3.30
2018-09-15T09:03:49.353Z,2.90
2018-09-15T09:06:18.680Z,3.00
2018-09-15T09:08:48.052Z,2.30
2018-09-15T09:11:17.555Z,2.40
2018-09-15T09:13:47.063Z,2.50
2018-09-15T09:16:16.565Z,2.00
2018-09-15T09:18:46.584Z,2.40
2018-09-15T09:21:15.979Z,2.23
2018-09-15T09:23:45.591Z,2.10
2018-09-15T09:26:15.060Z,2.03
2018-09-15T09:28:44.393Z,1.80
2018-09-15T09:31:13.795Z,1.70
2018-09-15T09:33:43.196Z,1.60
2018-09-15T09:36:12.504Z,1.40
2018-09-15T09:38:42.002Z,1.37
2018-09-15T09:41:11.305Z,1.30
2018-09-15T09:43:40.710Z,1.30
2018-09-15T09:46:10.001Z,1.42
2018-09-15T09:48:39.402Z,1.15
2018-09-15T09:51:08.805Z,1.30
2018-09-15T09:53:38.208Z,1.30
2018-09-15T09:56:07.610Z,1.40
2018-09-15T09:58:36.912Z,1.10
2018-09-15T10:01:11.592Z,1.15
2018-09-15T10:03:41.039Z,1.50
2018-09-15T10:06:10.444Z,1.20
2018-09-15T10:08:39.883Z,1.40
2018-09-15T10:11:09.346Z,1.50
2018-09-15T10:13:38.797Z,1.20
2018-09-15T10:16:08.305Z,1.32
2018-09-15T10:18:37.755Z,1.30
2018-09-15T10:21:07.158Z,1.20
2018-09-15T10:23:36.771Z,1.15
2018-09-15T10:26:06.162Z,1.10
2018-09-15T10:28:35.570Z,1.30
2018-09-15T10:31:04.970Z,1.20
2018-09-15T10:33:34.371Z,1.40
2018-09-15T10:36:04.597Z,1.55
2018-09-15T10:38:34.245Z,1.30
2018-09-15T10:41:03.706Z,1.50
2018-09-15T10:43:33.115Z,1.25
2018-09-15T10:46:02.639Z,1.10
2018-09-15T10:48:32.026Z,1.30
2018-09-15T10:51:01.415Z,1.40
2018-09-15T10:53:30.740Z,1.37
2018-09-15T10:56:00.116Z,1.10
2018-09-15T10:58:29.518Z,1.20
2018-09-15T11:00:59.023Z,1.17
2018-09-15T11:03:28.527Z,1.35
2018-09-15T11:05:57.982Z,1.20
2018-09-15T11:08:27.329Z,1.10
2018-09-15T11:10:56.634Z,1.20
2018-09-15T11:13:26.245Z,1.40
2018-09-15T11:15:55.535Z,1.30
2018-09-15T11:18:25.040Z,1.10
2018-09-15T11:20:54.439Z,1.07
2018-09-15T11:23:23.846Z,1.00
2018-09-15T11:25:53.246Z,1.20
2018-09-15T11:28:22.647Z,1.00
2018-09-15T11:30:52.154Z,1.12
2018-09-15T11:33:21.551Z,1.00
2018-09-15T11:35:50.853Z,1.00
2018-09-15T11:38:20.363Z,1.17
2018-09-15T11:40:49.765Z,1.17
2018-09-15T11:43:19.166Z,1.17
2018-09-15T11:45:48.563Z,1.17
2018-09-15T11:48:17.863Z,1.00
2018-09-15T11:50:47.265Z,1.00
2018-09-15T11:53:16.667Z,1.20
2018-09-15T11:55:46.068Z,1.00
2018-09-15T11:58:15.473Z,1.17
2018-09-15T12:00:49.685Z,0.80
2018-09-15T12:03:19.091Z,1.02
2018-09-15T12:05:48.492Z,1.05
2018-09-15T12:08:18.096Z,0.88
2018-09-15T12:10:47.602Z,1.12
2018-09-15T12:13:17.018Z,0.80
2018-09-15T12:15:46.574Z,0.80
2018-09-15T12:18:16.013Z,0.82
2018-09-15T12:20:45.415Z,0.78
2018-09-15T12:23:14.920Z,0.93
2018-09-15T12:25:44.321Z,1.00
2018-09-15T12:28:13.722Z,0.90
2018-09-15T12:30:43.227Z,1.02
2018-09-15T12:33:12.629Z,0.93
2018-09-15T12:35:42.194Z,0.70
2018-09-15T12:38:11.844Z,0.75
2018-09-15T12:40:41.200Z,0.82
2018-09-15T12:43:10.544Z,0.80
2018-09-15T12:45:39.945Z,0.82
2018-09-15T12:48:09.350Z,0.90
2018-09-15T12:50:38.748Z,1.02
2018-09-15T12:53:08.155Z,1.10
2018-09-15T12:55:37.556Z,1.10
2018-09-15T12:58:06.787Z,0.98
2018-09-15T13:00:36.154Z,0.82
2018-09-15T13:03:05.451Z,1.30
2018-09-15T13:05:34.853Z,1.10
2018-09-15T13:08:04.369Z,1.00
2018-09-15T13:10:33.760Z,1.10
2018-09-15T13:13:03.163Z,0.90
2018-09-15T13:15:32.635Z,1.00
2018-09-15T13:18:01.870Z,0.90
2018-09-15T13:20:31.270Z,0.98
2018-09-15T13:23:00.666Z,0.90
2018-09-15T13:25:30.077Z,0.85
2018-09-15T13:27:59.471Z,0.90
2018-09-15T13:30:28.834Z,0.95
2018-09-15T13:32:58.174Z,0.80
2018-09-15T13:35:27.579Z,0.90
2018-09-15T13:37:56.836Z,0.93
2018-09-15T13:40:26.175Z,1.05
2018-09-15T13:42:55.580Z,0.80
2018-09-15T13:45:24.984Z,0.90
2018-09-15T13:47:54.381Z,0.95
2018-09-15T13:50:23.784Z,0.90
2018-09-15T13:52:53.086Z,1.35
2018-09-15T13:55:22.484Z,0.98
2018-09-15T13:57:51.887Z,0.78
2018-09-15T14:00:21.391Z,0.80
2018-09-15T14:02:50.896Z,0.80
2018-09-15T14:05:20.299Z,1.10
2018-09-15T14:07:49.698Z,0.90
2018-09-15T14:10:19.387Z,1.05
2018-09-15T14:12:48.505Z,1.12
2018-09-15T14:15:17.904Z,1.20
2018-09-15T14:17:47.305Z,1.12
2018-09-15T14:20:16.709Z,1.00
2018-09-15T14:22:46.212Z,0.98
2018-09-15T14:25:15.615Z,1.00
2018-09-15T14:27:45.119Z,1.10
2018-09-15T14:30:14.415Z,1.02
2018-09-15T14:32:44.026Z,1.20
2018-09-15T14:35:13.427Z,1.20
2018-09-15T14:37:42.932Z,1.30
2018-09-15T14:40:12.421Z,1.40
2018-09-15T14:42:41.734Z,1.10
2018-09-15T14:45:11.034Z,1.13
2018-09-15T14:47:40.438Z,1.37
2018-09-15T14:50:09.852Z,1.37
2018-09-15T14:52:39.267Z,1.05
2018-09-15T14:55:08.699Z,1.25
2018-09-15T14:57:38.151Z,1.20
2018-09-15T15:00:08.559Z,1.40
2018-09-15T15:02:37.971Z,1.50
2018-09-15T15:05:07.377Z,1.22
2018-09-15T15:07:36.934Z,1.90
2018-09-15T15:10:06.387Z,1.55
2018-09-15T15:12:35.691Z,1.60
2018-09-15T15:15:05.090Z,1.45
2018-09-15T15:17:34.490Z,2.00
2018-09-15T15:20:03.888Z,1.70
2018-09-15T15:22:33.190Z,1.70
2018-09-15T15:25:03.988Z,1.70
2018-09-15T15:27:33.326Z,1.60
2018-09-15T15:30:02.945Z,1.80
2018-09-15T15:32:32.375Z,1.50
2018-09-15T15:35:01.840Z,2.00
2018-09-15T15:37:31.454Z,1.57
2018-09-15T15:40:00.848Z,1.80
2018-09-15T15:42:30.147Z,1.65
2018-09-15T15:44:59.443Z,1.70
2018-09-15T15:47:28.745Z,1.90
2018-09-15T15:49:58.148Z,1.67
2018-09-15T15:52:28.102Z,1.60
2018-09-15T15:54:57.655Z,1.50
2018-09-15T15:57:27.255Z,1.63
2018-09-15T15:59:56.883Z,1.47
2018-09-15T16:02:26.389Z,2.00
2018-09-15T16:04:55.892Z,1.60
2018-09-15T16:07:25.295Z,1.70
2018-09-15T16:09:54.724Z,1.40
2018-09-15T16:12:24.122Z,1.50
2018-09-15T16:14:53.537Z,1.80
2018-09-15T16:17:22.800Z,1.40
2018-09-15T16:19:52.304Z,1.60
2018-09-15T16:22:21.707Z,1.60
2018-09-15T16:24:51.109Z,1.77
2018-09-15T16:27:20.520Z,1.70
2018-09-15T16:29:49.913Z,1.30
2018-09-15T16:32:19.417Z,1.50
2018-09-15T16:34:48.915Z,1.50
2018-09-15T16:37:18.322Z,1.57
2018-09-15T16:39:47.827Z,1.80
2018-09-15T16:42:17.229Z,2.17
2018-09-15T16:44:46.522Z,1.60
2018-09-15T16:47:16.036Z,1.60
2018-09-15T16:49:45.435Z,1.50
2018-09-15T16:52:14.939Z,1.63
2018-09-15T16:54:44.444Z,1.60
2018-09-15T16:57:13.846Z,2.20
2018-09-15T16:59:43.418Z,2.40
2018-09-15T17:02:12.854Z,1.60
2018-09-15T17:04:42.276Z,2.77
2018-09-15T17:07:11.716Z,4.00
2018-09-15T17:09:41.166Z,3.50
2018-09-15T17:12:10.566Z,8.27
2018-09-15T17:14:40.071Z,10.47
2018-09-15T17:17:09.474Z,59.53
2018-09-15T17:19:38.877Z,16.00
2018-09-15T17:22:08.277Z,36.70
2018-09-15T17:24:37.781Z,28.50
2018-09-15T17:27:07.570Z,22.10
2018-09-15T17:29:36.894Z,49.67
2018-09-15T17:32:06.496Z,6.20
2018-09-15T17:34:35.910Z,24.30
2018-09-15T17:37:05.336Z,16.10
2018-09-15T17:39:34.806Z,9.00
2018-09-15T17:42:04.312Z,24.97
2018-09-15T17:44:33.815Z,53.80
2018-09-15T17:47:03.320Z,41.23
2018-09-15T17:49:32.824Z,35.80
2018-09-15T17:52:02.313Z,10.53
2018-09-15T17:54:31.761Z,5.43
2018-09-15T17:57:01.131Z,4.90
2018-09-15T17:59:30.535Z,5.33
2018-09-15T18:02:00.007Z,5.60
2018-09-15T18:04:29.439Z,6.10
2018-09-15T18:06:58.841Z,4.10
2018-09-15T18:09:28.257Z,6.73
2018-09-15T18:11:57.868Z,4.80
2018-09-15T18:14:27.466Z,5.37
2018-09-15T18:16:56.962Z,4.70
2018-09-15T18:19:26.360Z,5.20
2018-09-15T18:21:55.879Z,4.93
2018-09-15T18:24:25.397Z,4.00
2018-09-15T18:26:54.774Z,3.80
2018-09-15T18:29:24.181Z,3.97
2018-09-15T18:31:53.681Z,4.70
2018-09-15T18:34:23.081Z,3.80
2018-09-15T18:36:53.129Z,4.20
2018-09-15T18:39:22.395Z,4.33
2018-09-15T18:41:52.112Z,4.10
2018-09-15T18:44:21.613Z,3.20
2018-09-15T18:46:51.015Z,3.00
2018-09-15T18:49:20.507Z,3.50
2018-09-15T18:51:50.024Z,2.30
2018-09-15T18:54:19.427Z,2.40
2018-09-15T18:56:48.929Z,2.50
2018-09-15T18:59:18.332Z,2.40
2018-09-15T19:01:47.818Z,2.90
2018-09-15T19:04:17.241Z,2.57
2018-09-15T19:06:46.747Z,2.23
2018-09-15T19:09:16.140Z,2.47
2018-09-15T19:11:45.649Z,2.40
2018-09-15T19:14:14.985Z,2.20
2018-09-15T19:16:44.352Z,2.20
2018-09-15T19:19:13.753Z,2.30
2018-09-15T19:21:43.154Z,2.10
2018-09-15T19:24:12.559Z,2.20
2018-09-15T19:26:42.165Z,2.10
2018-09-15T19:29:11.461Z,2.50
2018-09-15T19:31:40.863Z,2.40
2018-09-15T19:34:10.265Z,2.20
2018-09-15T19:36:39.769Z,2.33
2018-09-15T19:39:11.877Z,2.17
2018-09-15T19:41:41.339Z,2.40
2018-09-15T19:44:10.843Z,2.13
2018-09-15T19:46:40.554Z,2.40
2018-09-15T19:49:10.671Z,2.20
2018-09-15T19:51:40.176Z,2.17
2018-09-15T19:54:09.681Z,2.30
2018-09-15T19:56:39.185Z,2.63
2018-09-15T19:59:08.612Z,2.93
2018-09-15T20:01:38.093Z,2.77
2018-09-15T20:04:07.612Z,2.80
2018-09-15T20:06:36.996Z,2.67
2018-09-15T20:09:08.866Z,2.83
2018-09-15T20:11:38.346Z,2.83
2018-09-15T20:14:08.462Z,3.00
2018-09-15T20:16:36.579Z,2.70
2018-09-15T20:19:05.065Z,2.70
2018-09-15T20:21:33.161Z,2.63
2018-09-15T20:24:02.605Z,2.70
2018-09-15T20:26:32.217Z,2.70
2018-09-15T20:29:01.784Z,3.00
2018-09-15T20:31:31.214Z,2.67
2018-09-15T20:34:00.643Z,2.60
2018-09-15T20:36:30.129Z,2.70
2018-09-15T20:38:59.450Z,3.00
2018-09-15T20:41:28.932Z,2.77
2018-09-15T20:43:58.437Z,2.77
2018-09-15T20:46:27.941Z,2.90
2018-09-15T20:48:57.488Z,3.07
2018-09-15T20:51:26.955Z,3.10
2018-09-15T20:53:56.353Z,2.93
2018-09-15T20:56:25.859Z,3.10
2018-09-15T20:58:55.155Z,3.13
2018-09-15T21:01:24.660Z,3.23
2018-09-15T21:03:54.062Z,3.40
2018-09-15T21:06:23.469Z,3.50
2018-09-15T21:08:52.971Z,3.80
2018-09-15T21:11:22.370Z,3.60
2018-09-15T21:13:54.741Z,3.60
2018-09-15T21:16:24.245Z,3.00
2018-09-15T21:18:53.749Z,3.27
2018-09-15T21:21:23.147Z,3.30
2018-09-15T21:23:52.343Z,3.77
2018-09-15T21:26:21.853Z,3.70
2018-09-15T21:28:51.357Z,3.67
2018-09-15T21:31:20.865Z,3.70
2018-09-15T21:33:50.263Z,3.60
2018-09-15T21:36:19.768Z,3.77
2018-09-15T21:38:49.125Z,4.00
2018-09-15T21:41:18.495Z,3.73
2018-09-15T21:43:47.870Z,3.97
2018-09-15T21:46:17.232Z,3.80
2018-09-15T21:48:46.571Z,4.20
2018-09-15T21:51:15.973Z,4.20
2018-09-15T21:53:45.462Z,4.43
2018-09-15T21:56:14.778Z,4.23
2018-09-15T21:58:44.090Z,4.20
2018-09-15T22:01:13.481Z,4.13
2018-09-15T22:03:48.968Z,4.10
2018-09-15T22:06:18.376Z,4.10
2018-09-15T22:08:47.726Z,3.90
2018-09-15T22:11:17.128Z,3.80
2018-09-15T22:13:46.531Z,4.20
2018-09-15T22:16:15.932Z,4.10
2018-09-15T22:18:45.188Z,3.87
2018-09-15T22:21:14.531Z,4.10
2018-09-15T22:23:43.830Z,3.90
2018-09-15T22:26:13.232Z,4.10
2018-09-15T22:28:42.845Z,4.50
2018-09-15T22:31:12.242Z,4.20
2018-09-15T22:33:41.746Z,4.23
2018-09-15T22:36:11.207Z,4.33
2018-09-15T22:38:40.549Z,4.37
2018-09-15T22:41:09.950Z,4.20
2018-09-15T22:43:39.247Z,4.30
2018-09-15T22:46:08.756Z,4.30
2018-09-15T22:48:38.051Z,4.10
2018-09-15T22:51:07.823Z,4.20
2018-09-15T22:53:37.167Z,4.30
2018-09-15T22:56:06.667Z,4.23
2018-09-15T22:58:36.072Z,4.50
2018-09-15T23:01:05.375Z,4.57
2018-09-15T23:03:34.851Z,4.47
2018-09-15T23:06:04.279Z,4.60
2018-09-15T23:08:33.782Z,4.10
2018-09-15T23:11:03.116Z,4.27
2018-09-15T23:13:32.382Z,4.30
2018-09-15T23:16:01.785Z,4.40
2018-09-15T23:18:31.290Z,4.30
2018-09-15T23:21:00.891Z,4.70
2018-09-15T23:23:30.298Z,4.40
2018-09-15T23:25:59.802Z,4.43
2018-09-15T23:28:29.203Z,4.60
2018-09-15T23:30:58.606Z,4.97
2018-09-15T23:33:28.111Z,4.50
2018-09-15T23:35:57.717Z,4.57
2018-09-15T23:38:27.119Z,4.40
2018-09-15T23:40:56.715Z,4.57
2018-09-15T23:43:26.024Z,3.87
2018-09-15T23:45:55.441Z,4.10
2018-09-15T23:48:24.930Z,3.77
2018-09-15T23:50:54.334Z,4.43
2018-09-15T23:53:23.755Z,4.30
2018-09-15T23:55:53.135Z,4.40
2018-09-15T23:58:22.434Z,4.37
